Jhelum Weather



Jhelum's Current Weather

Temprature 37.65o clear sky

clear sky

Rain: 0 %

Min Temprature37.65o
Max Temprature37.65o
Humidity26
Wind Speed1.38 m/h
Sun Rise05:01:58
Sun Set19:17:03
Current Time: 05-Jul-2020 18:53:57
Lat/Lon: 32.93, 73.73




Jhelum's Geo Location



Jhelum's Weather Forecast

Time Overall Temp Min Temp Max Temp Humidity Wind Speed Rain
05-Jul-2020 (Sun)
20:00:00 clear sky 37.470 36.560 37.470 27 1.55 m/h 0 %
23:00:00 clear sky 35.600 34.840 35.600 31 1.41 m/h 0 %
06-Jul-2020 (Mon)
02:00:00 scattered clouds 33.530 33.200 33.530 36 1.34 m/h 0 %
05:00:00 few clouds 31.340 31.280 31.340 40 1.83 m/h 0 %
08:00:00 clear sky 35.220 35.220 35.220 32 1.17 m/h 0 %
11:00:00 clear sky 39.850 39.850 39.850 23 0.82 m/h 0 %
14:00:00 clear sky 42.430 42.430 42.430 17 2.11 m/h 0 %
17:00:00 clear sky 42.620 42.620 42.620 15 1.02 m/h 0 %
20:00:00 clear sky 39.980 39.980 39.980 17 0.33 m/h 0 %
23:00:00 clear sky 37.860 37.860 37.860 20 1.49 m/h 0 %
07-Jul-2020 (Tue)
02:00:00 few clouds 35.600 35.600 35.600 22 2.09 m/h 0 %
05:00:00 clear sky 33.690 33.690 33.690 26 1.5 m/h 0 %
08:00:00 clear sky 37.570 37.570 37.570 30 5.48 m/h 0 %
11:00:00 scattered clouds 41.940 41.940 41.940 23 4.38 m/h 0 %
14:00:00 overcast clouds 44.330 44.330 44.330 15 0.58 m/h 0 %
17:00:00 overcast clouds 44.340 44.340 44.340 13 0.73 m/h 0 %
20:00:00 broken clouds 41.410 41.410 41.410 16 0.26 m/h 0 %
23:00:00 broken clouds 39.340 39.340 39.340 18 0.82 m/h 0 %
08-Jul-2020 (Wed)
02:00:00 broken clouds 38.060 38.060 38.060 24 4.51 m/h 0 %
05:00:00 broken clouds 34.090 34.090 34.090 46 7.19 m/h 0 %
08:00:00 clear sky 35.550 35.550 35.550 45 6.31 m/h 0 %
11:00:00 clear sky 40.360 40.360 40.360 32 4.17 m/h 0 %
14:00:00 few clouds 44.410 44.410 44.410 19 0.6 m/h 0 %
17:00:00 scattered clouds 44.690 44.690 44.690 16 0.33 m/h 0 %
20:00:00 few clouds 41.320 41.320 41.320 23 3.58 m/h 0 %
23:00:00 few clouds 39.140 39.140 39.140 29 2.77 m/h 0 %
09-Jul-2020 (Thu)
02:00:00 clear sky 36.780 36.780 36.780 37 5.89 m/h 0 %
05:00:00 clear sky 33.430 33.430 33.430 50 6.65 m/h 0 %
08:00:00 clear sky 34.230 34.230 34.230 51 7.16 m/h 0 %
11:00:00 few clouds 40.040 40.040 40.040 33 5.26 m/h 0 %
14:00:00 clear sky 43.570 43.570 43.570 22 2.43 m/h 0 %
17:00:00 clear sky 45.060 45.060 45.060 18 2.7 m/h 0 %
20:00:00 scattered clouds 41.160 41.160 41.160 23 3.14 m/h 0 %
23:00:00 light rain 34.830 34.830 34.830 43 7.22 m/h 107 %
10-Jul-2020 (Fri)
02:00:00 moderate rain 29.570 29.570 29.570 63 4.52 m/h 747 %
05:00:00 moderate rain 29.810 29.810 29.810 53 3.31 m/h 384 %
08:00:00 light rain 31.720 31.720 31.720 45 1.58 m/h 17 %
11:00:00 light rain 35.700 35.700 35.700 35 2.59 m/h 37 %
14:00:00 few clouds 39.190 39.190 39.190 30 2.28 m/h 0 %
17:00:00 clear sky 40.450 40.450 40.450 27 0.28 m/h 0 %

Famous Cities (60)